Time;durP1;ratioP1;P1;durP2;ratioP2;P2;SDS_P1;SDS_P2;PMS_P1;PMS_P2;Temp;Humidity;BMP_temperature;BMP_pressure;BME280_temperature;BME280_humidity;BME280_pressure;Samples;Min_cycle;Max_cycle;Signal;HPM_P1;HPM_P2
2023/05/20 00:01:52;;;;;;;9.77;3.77;;;;;;;-145.18;100.00;46642.81;5039439;28;20041;-63
2023/05/20 00:04:17;;;;;;;6.30;3.03;;;;;;;-145.18;100.00;46652.59;5034450;28;20083;-63
2023/05/20 00:06:43;;;;;;;11.33;3.57;;;;;;;-145.18;100.00;46648.69;5038036;28;20478;-62
2023/05/20 00:09:08;;;;;;;9.77;2.90;;;;;;;-145.18;100.00;46646.72;5034340;28;20490;-63
2023/05/20 00:11:34;;;;;;;8.80;3.10;;;;;;;-145.18;100.00;46656.50;5034250;28;20556;-62
2023/05/20 00:13:59;;;;;;;5.63;2.60;;;;;;;-145.18;100.00;46646.72;5034421;28;20055;-63
2023/05/20 00:16:25;;;;;;;6.93;2.87;;;;;;;-145.18;100.00;46656.50;5037647;28;20442;-63
2023/05/20 00:18:50;;;;;;;9.33;3.17;;;;;;;-145.18;100.00;46652.59;5053693;28;20114;-63
2023/05/20 00:21:15;;;;;;;5.33;2.80;;;;;;;-145.18;100.00;46621.31;5053952;28;20029;-62
2023/05/20 00:23:41;;;;;;;7.40;3.23;;;;;;;-145.18;100.00;46631.09;5054113;28;20151;-63
2023/05/20 00:26:06;;;;;;;9.07;3.60;;;;;;;-145.18;100.00;46627.19;5053952;28;20584;-63
2023/05/20 00:28:31;;;;;;;5.80;2.67;;;;;;;-145.18;100.00;46635.00;5034826;28;20094;-63
2023/05/20 00:30:57;;;;;;;5.13;3.10;;;;;;;-145.18;100.00;46621.31;5034154;28;20029;-63
2023/05/20 00:33:22;;;;;;;9.30;3.17;;;;;;;-145.18;100.00;46636.94;5035144;28;20504;-63
2023/05/20 00:35:48;;;;;;;7.30;3.17;;;;;;;-145.18;100.00;46615.47;5016071;28;20498;-62
2023/05/20 00:38:13;;;;;;;7.07;3.53;;;;;;;-145.18;100.00;46617.41;5033753;28;20041;-63
2023/05/20 00:40:38;;;;;;;7.87;3.47;;;;;;;-145.18;100.00;46623.28;5015949;28;20053;-63
2023/05/20 00:43:04;;;;;;;5.17;2.87;;;;;;;-145.18;100.00;46601.78;5033339;28;20025;-63
2023/05/20 00:45:30;;;;;;;10.07;3.40;;;;;;;-145.18;100.00;46617.41;5033760;28;20026;-63
2023/05/20 00:47:58;;;;;;;11.03;3.17;;;;;;;-145.18;100.00;46613.50;5033549;28;20108;-63
2023/05/20 00:50:23;;;;;;;6.97;3.17;;;;;;;-145.18;100.00;46623.28;5048916;28;20037;-63
2023/05/20 00:52:50;;;;;;;10.30;3.30;;;;;;;-145.18;100.00;46621.31;5034152;28;20049;-62
2023/05/20 00:55:15;;;;;;;7.00;3.57;;;;;;;-145.18;100.00;46611.56;5033899;28;20028;-63
2023/05/20 00:57:41;;;;;;;9.10;3.10;;;;;;;-145.18;100.00;46617.41;5033268;28;20410;-63
2023/05/20 01:00:09;;;;;;;5.87;3.17;;;;;;;-145.18;100.00;46625.22;5033384;28;20088;-62
2023/05/20 01:02:34;;;;;;;9.77;3.73;;;;;;;-145.18;100.00;46615.47;5032993;28;20036;-63
2023/05/20 01:05:00;;;;;;;7.23;3.10;;;;;;;-145.18;100.00;46605.69;5033456;28;20030;-63
2023/05/20 01:07:25;;;;;;;6.07;2.97;;;;;;;-145.18;100.00;46627.19;5033296;28;20087;-62
2023/05/20 01:09:53;;;;;;;7.70;3.20;;;;;;;-145.18;100.00;46619.38;5034207;28;20486;-63
2023/05/20 01:12:39;;;;;;;10.23;3.47;;;;;;;-145.18;100.00;46619.38;5033422;28;20049;-62
2023/05/20 01:15:06;;;;;;;;;;;;;;;-145.18;100.00;46623.28;5033568;28;20053;-63
2023/05/20 01:17:36;;;;;;;6.80;2.80;;;;;;;-145.18;100.00;46601.78;5049154;28;19994;-63
2023/05/20 01:20:04;;;;;;;9.63;3.47;;;;;;;-145.18;100.00;46619.38;5052973;28;20493;-63
2023/05/20 01:22:30;;;;;;;9.63;3.20;;;;;;;-145.18;100.00;46601.78;5051139;28;20033;-63
2023/05/20 01:24:55;;;;;;;6.80;3.20;;;;;;;-145.18;100.00;46613.50;5053035;28;20032;-63
2023/05/20 01:27:22;;;;;;;7.10;3.53;;;;;;;-145.18;100.00;46597.88;5052524;28;20029;-63
2023/05/20 01:29:52;;;;;;;10.80;4.77;;;;;;;-145.18;100.00;46597.88;5053029;28;20056;-63
2023/05/20 01:32:39;;;;;;;7.27;3.57;;;;;;;-145.18;100.00;46582.25;5034670;28;20452;-63
2023/05/20 01:35:06;;;;;;;7.50;3.20;;;;;;;-145.18;100.00;46597.88;5051471;28;20043;-63
2023/05/20 01:37:35;;;;;;;6.47;3.60;;;;;;;-145.18;100.00;46590.06;5032917;28;20029;-63
2023/05/20 01:40:04;;;;;;;11.40;4.23;;;;;;;-145.18;100.00;46588.13;5032442;28;20500;-63
2023/05/20 01:42:29;;;;;;;8.87;3.70;;;;;;;-145.18;100.00;46588.13;5032558;28;20269;-63
2023/05/20 01:44:55;;;;;;;9.57;3.73;;;;;;;-145.18;100.00;46584.22;5032991;28;20275;-63
2023/05/20 01:47:20;;;;;;;5.97;3.03;;;;;;;-145.18;100.00;46584.22;5032805;28;20029;-63
2023/05/20 01:49:46;;;;;;;10.00;3.63;;;;;;;-145.18;100.00;46592.03;5015060;28;20398;-63
2023/05/20 01:52:12;;;;;;;8.63;3.70;;;;;;;-145.18;100.00;46582.25;5032801;28;20025;-63
2023/05/20 01:54:37;;;;;;;8.63;3.43;;;;;;;-145.18;100.00;46580.31;5032551;28;20048;-63
2023/05/20 01:57:03;;;;;;;8.10;3.63;;;;;;;-145.18;100.00;46574.44;5032052;28;20456;-63
2023/05/20 01:59:28;;;;;;;10.83;4.07;;;;;;;-145.18;100.00;46572.50;5032561;28;20030;-63
2023/05/20 02:01:54;;;;;;;8.20;3.40;;;;;;;-145.18;100.00;46570.53;5032240;28;20406;-63
2023/05/20 02:04:21;;;;;;;9.13;4.00;;;;;;;-145.18;100.00;46568.59;5015134;28;20080;-63
2023/05/20 02:06:46;;;;;;;9.63;4.07;;;;;;;-145.18;100.00;46570.53;5032219;28;20030;-63
2023/05/20 02:09:12;;;;;;;4.20;3.10;;;;;;;-145.18;100.00;46576.41;5032037;28;20297;-63
2023/05/20 02:11:37;;;;;;;12.20;4.60;;;;;;;-145.18;100.00;46570.53;5014377;28;20033;-63
2023/05/20 02:14:03;;;;;;;7.70;3.80;;;;;;;-145.18;100.00;46572.50;5032409;28;20032;-63
2023/05/20 02:16:28;;;;;;;6.53;3.33;;;;;;;-145.18;100.00;46570.53;5034896;28;20536;-63
2023/05/20 02:18:53;;;;;;;9.67;3.83;;;;;;;-145.18;100.00;46570.53;5051908;28;20064;-63
2023/05/20 02:21:20;;;;;;;7.03;3.80;;;;;;;-145.18;100.00;46580.31;5051755;28;20033;-63
2023/05/20 02:23:45;;;;;;;9.97;3.90;;;;;;;-145.18;100.00;46566.63;5039172;28;20033;-63
2023/05/20 02:26:11;;;;;;;6.53;3.73;;;;;;;-145.18;100.00;46578.34;5032597;28;20270;-63
2023/05/20 02:28:43;;;;;;;6.20;3.30;;;;;;;-145.18;100.00;46578.34;5032408;28;20033;-63
2023/05/20 02:31:09;;;;;;;12.13;4.37;;;;;;;-145.18;100.00;46570.53;5042824;28;20048;-63
2023/05/20 02:33:34;;;;;;;11.30;4.57;;;;;;;-145.18;100.00;46568.59;5052235;28;21088;-63
2023/05/20 02:35:59;;;;;;;12.93;4.57;;;;;;;-145.18;100.00;46574.44;5036147;28;20418;-63
2023/05/20 02:38:25;;;;;;;10.00;3.90;;;;;;;-145.18;100.00;46562.72;5032168;28;20033;-63
2023/05/20 02:40:50;;;;;;;9.47;4.10;;;;;;;-145.18;100.00;46572.50;5039990;28;20577;-63
2023/05/20 02:43:16;;;;;;;10.60;3.80;;;;;;;-145.18;100.00;46568.59;5033821;28;20029;-63
2023/05/20 02:45:41;;;;;;;8.23;4.17;;;;;;;-145.18;100.00;46570.53;5034068;28;20470;-63
2023/05/20 02:48:07;;;;;;;8.07;3.90;;;;;;;-145.18;100.00;46560.78;5032104;28;20033;-63
2023/05/20 02:50:32;;;;;;;8.87;4.07;;;;;;;-145.18;100.00;46560.78;5032009;28;20104;-63
2023/05/20 02:52:57;;;;;;;15.10;4.30;;;;;;;-145.18;100.00;46564.69;5031615;28;20111;-63
2023/05/20 02:55:23;;;;;;;7.57;4.00;;;;;;;-145.18;100.00;46562.72;5014418;28;20108;-63
2023/05/20 02:57:48;;;;;;;7.13;3.87;;;;;;;-145.18;100.00;46564.69;5032252;28;20067;-63
2023/05/20 03:00:15;;;;;;;6.60;3.97;;;;;;;-145.18;100.00;46564.69;5014334;28;20513;-63
2023/05/20 03:02:40;;;;;;;9.00;4.03;;;;;;;-145.18;100.00;46562.72;5031944;28;20087;-62
2023/05/20 03:05:06;;;;;;;10.77;4.20;;;;;;;-145.18;100.00;46560.78;5031493;28;20263;-63
2023/05/20 03:07:35;;;;;;;10.93;4.03;;;;;;;-145.18;100.00;46564.69;5014109;28;20034;-63
2023/05/20 03:10:01;;;;;;;11.10;4.57;;;;;;;-145.18;100.00;46556.88;5031692;28;20037;-63
2023/05/20 03:12:27;;;;;;;8.57;3.80;;;;;;;-145.18;100.00;46562.72;5032229;28;20275;-63
2023/05/20 03:14:54;;;;;;;11.90;4.60;;;;;;;-145.18;100.00;46558.81;5031699;28;21050;-63
2023/05/20 03:17:20;;;;;;;13.17;4.30;;;;;;;-145.18;100.00;46558.81;5031676;28;20049;-63
2023/05/20 03:19:45;;;;;;;11.73;3.90;;;;;;;-145.18;100.00;46566.63;5031827;28;20287;-63
2023/05/20 03:22:11;;;;;;;6.57;3.87;;;;;;;-145.18;100.00;46556.88;5015106;28;20771;-63
2023/05/20 03:24:36;;;;;;;7.73;4.17;;;;;;;-145.18;100.00;46554.91;5036112;28;20044;-63
2023/05/20 03:27:01;;;;;;;8.77;4.03;;;;;;;-145.18;100.00;46556.88;5055238;28;20048;-63
2023/05/20 03:29:27;;;;;;;5.37;3.60;;;;;;;-145.18;100.00;46551.00;5054992;28;20390;-63
2023/05/20 03:31:52;;;;;;;8.50;4.17;;;;;;;-145.18;100.00;46554.91;5055278;28;20075;-63
2023/05/20 03:34:17;;;;;;;7.97;4.03;;;;;;;-145.18;100.00;46556.88;5054821;28;20047;-63
2023/05/20 03:36:43;;;;;;;6.33;3.80;;;;;;;-145.18;100.00;46554.91;5054983;28;20028;-63
2023/05/20 03:39:09;;;;;;;7.20;3.67;;;;;;;-145.18;100.00;46551.00;5054819;28;20427;-63
2023/05/20 03:41:34;;;;;;;8.93;4.40;;;;;;;-145.18;100.00;46562.72;5055150;28;20553;-63
2023/05/20 03:44:00;;;;;;;11.27;4.27;;;;;;;-145.18;100.00;46560.78;5054932;28;20035;-63
2023/05/20 03:46:25;;;;;;;8.60;4.27;;;;;;;-145.18;100.00;46564.69;5043833;28;20470;-63
2023/05/20 03:48:50;;;;;;;6.77;4.50;;;;;;;-145.18;100.00;46609.59;5016845;28;20044;-63
2023/05/20 03:51:16;;;;;;;7.60;4.50;;;;;;;-145.18;100.00;46609.59;5039528;28;20104;-63
2023/05/20 03:53:41;;;;;;;8.40;3.83;;;;;;;-145.18;100.00;46611.56;5036608;28;20027;-63
2023/05/20 03:56:06;;;;;;;7.63;3.83;;;;;;;-145.18;100.00;46611.56;5054571;28;20110;-63
2023/05/20 03:58:32;;;;;;;7.80;3.90;;;;;;;-145.18;100.00;46617.41;5036317;28;20025;-62
2023/05/20 04:00:57;;;;;;;7.43;3.93;;;;;;;-145.18;100.00;46619.38;5054651;28;20056;-63
2023/05/20 04:03:23;;;;;;;10.57;4.70;;;;;;;-145.18;100.00;46619.38;5053996;28;20092;-63
2023/05/20 04:05:49;;;;;;;10.40;4.33;;;;;;;-145.18;100.00;46621.31;5041976;28;20116;-62
2023/05/20 04:08:15;;;;;;;8.53;3.93;;;;;;;-145.18;100.00;46627.19;5034280;28;20029;-63
2023/05/20 04:10:43;;;;;;;8.83;4.83;;;;;;;-145.18;100.00;46625.22;5016471;28;20269;-63
2023/05/20 04:13:10;;;;;;;5.87;4.10;;;;;;;-145.18;100.00;46621.31;5034444;28;20053;-63
2023/05/20 04:15:36;;;;;;;9.90;4.43;;;;;;;-145.18;100.00;46619.38;5034097;28;20632;-63
2023/05/20 04:18:01;;;;;;;7.50;3.83;;;;;;;-145.18;100.00;46570.53;5048442;28;20293;-62
2023/05/20 04:20:27;;;;;;;8.13;4.03;;;;;;;-145.18;100.00;46570.53;5053457;28;20044;-63
2023/05/20 04:22:53;;;;;;;9.30;4.60;;;;;;;-145.18;100.00;46570.53;5054151;28;20025;-63
2023/05/20 04:25:18;;;;;;;12.10;4.53;;;;;;;-145.18;100.00;46566.63;5053886;28;20040;-63
2023/05/20 04:27:44;;;;;;;9.63;3.80;;;;;;;-145.18;100.00;46568.59;5053300;28;20025;-63
2023/05/20 04:30:10;;;;;;;10.40;4.20;;;;;;;-145.18;100.00;46558.81;5054107;28;20119;-63
2023/05/20 04:32:36;;;;;;;6.90;3.90;;;;;;;-145.18;100.00;46554.91;5052722;28;20049;-63
2023/05/20 04:35:01;;;;;;;10.17;3.97;;;;;;;-145.18;100.00;46554.91;5053501;28;20264;-63
2023/05/20 04:37:27;;;;;;;6.97;4.00;;;;;;;-145.18;100.00;46551.00;5041589;28;20053;-63
2023/05/20 04:39:53;;;;;;;8.20;3.53;;;;;;;-145.18;100.00;46549.06;5033562;28;20037;-63
2023/05/20 04:42:20;;;;;;;8.50;3.90;;;;;;;-145.18;100.00;46547.09;5033845;28;20328;-63
2023/05/20 04:44:46;;;;;;;8.70;4.03;;;;;;;-145.18;100.00;46549.06;5033578;28;20559;-63
2023/05/20 04:47:12;;;;;;;8.50;4.40;;;;;;;-145.18;100.00;46545.16;5033851;28;20356;-63
2023/05/20 04:49:38;;;;;;;9.03;3.83;;;;;;;-145.18;100.00;46547.09;5033360;28;20778;-63
2023/05/20 04:52:04;;;;;;;11.07;4.00;;;;;;;-145.18;100.00;46543.19;5033381;28;20251;-63
2023/05/20 04:54:31;;;;;;;8.70;4.23;;;;;;;-145.18;100.00;46539.28;5033493;28;20025;-63
2023/05/20 04:56:57;;;;;;;9.80;4.10;;;;;;;-145.18;100.00;46543.19;5043435;28;20063;-63
2023/05/20 04:59:22;;;;;;;11.33;3.50;;;;;;;-145.18;100.00;46539.28;5052453;28;20029;-62
2023/05/20 05:01:48;;;;;;;8.23;4.17;;;;;;;-145.18;100.00;46545.16;5053514;28;20087;-63
2023/05/20 05:04:13;;;;;;;12.37;4.03;;;;;;;-145.18;100.00;46539.28;5053078;28;20079;-63
2023/05/20 05:06:38;;;;;;;6.50;4.10;;;;;;;-145.18;100.00;46541.25;5052996;28;20033;-63
2023/05/20 05:09:04;;;;;;;12.20;3.90;;;;;;;-145.18;100.00;46545.16;5053335;28;20115;-63
2023/05/20 05:11:29;;;;;;;7.47;4.40;;;;;;;-145.18;100.00;46545.16;5053109;28;20033;-63
2023/05/20 05:13:55;;;;;;;10.23;4.30;;;;;;;-145.18;100.00;46545.16;5045568;28;20106;-63
2023/05/20 05:16:21;;;;;;;8.73;4.17;;;;;;;-145.18;100.00;46551.00;5040458;28;20104;-63
2023/05/20 05:18:46;;;;;;;7.97;3.90;;;;;;;-145.18;100.00;46545.16;5052629;28;20060;-63
2023/05/20 05:21:12;;;;;;;9.50;3.93;;;;;;;-145.18;100.00;46549.06;5053182;28;20029;-63
2023/05/20 05:23:37;;;;;;;5.63;3.57;;;;;;;-145.18;100.00;46551.00;5052898;28;20029;-63
2023/05/20 05:26:03;;;;;;;8.50;3.63;;;;;;;-145.18;100.00;46554.91;5036936;28;20032;-63
2023/05/20 05:28:28;;;;;;;9.80;3.77;;;;;;;-145.18;100.00;46547.09;5046458;28;20494;-63
2023/05/20 05:30:55;;;;;;;11.27;3.80;;;;;;;-145.18;100.00;46556.88;5034778;28;20025;-63
2023/05/20 05:33:20;;;;;;;10.77;4.27;;;;;;;-145.18;100.00;46554.91;5046182;28;20029;-63
2023/05/20 05:35:46;;;;;;;9.77;4.00;;;;;;;-145.18;100.00;46547.09;5032798;28;20434;-63
2023/05/20 05:38:11;;;;;;;12.97;4.27;;;;;;;-145.18;100.00;46554.91;5032492;28;20492;-63
2023/05/20 05:40:37;;;;;;;9.77;3.40;;;;;;;-145.18;100.00;46554.91;5035995;28;20033;-63
2023/05/20 05:43:02;;;;;;;6.60;4.03;;;;;;;-145.18;100.00;46549.06;5021404;28;20025;-63
2023/05/20 05:45:28;;;;;;;12.63;3.70;;;;;;;-145.18;100.00;46558.81;5039559;28;20032;-63
2023/05/20 05:47:53;;;;;;;8.87;3.97;;;;;;;-145.18;100.00;46556.88;5032632;28;20088;-63
2023/05/20 05:50:19;;;;;;;5.60;3.27;;;;;;;-145.18;100.00;46556.88;5032142;28;20448;-63
2023/05/20 05:52:45;;;;;;;12.27;3.70;;;;;;;-145.18;100.00;46554.91;5029969;28;20021;-63
2023/05/20 05:55:11;;;;;;;8.87;3.70;;;;;;;-145.18;100.00;46552.97;5046848;28;20029;-63
2023/05/20 05:57:36;;;;;;;5.87;3.73;;;;;;;-145.18;100.00;46568.59;5032088;28;20042;-63
2023/05/20 06:00:03;;;;;;;7.97;3.43;;;;;;;-145.18;100.00;46560.78;5033441;28;20028;-63
2023/05/20 06:02:28;;;;;;;6.43;3.50;;;;;;;-145.18;100.00;46556.88;5045194;28;20021;-63
2023/05/20 06:04:54;;;;;;;7.93;3.83;;;;;;;-145.18;100.00;46560.78;5043295;28;20091;-63
2023/05/20 06:07:20;;;;;;;4.90;3.50;;;;;;;-145.18;100.00;46556.88;5047416;28;20116;-63
2023/05/20 06:09:45;;;;;;;7.80;3.67;;;;;;;-145.18;100.00;46556.88;5036928;28;20487;-63
2023/05/20 06:12:11;;;;;;;6.47;3.67;;;;;;;-145.18;100.00;46558.81;5043211;28;20107;-63
2023/05/20 06:14:36;;;;;;;5.30;3.60;;;;;;;-145.18;100.00;46554.91;5051965;28;20029;-63
2023/05/20 06:17:03;;;;;;;7.73;3.73;;;;;;;-145.18;100.00;46562.72;5033417;28;20571;-63
2023/05/20 06:19:28;;;;;;;6.77;4.30;;;;;;;-145.18;100.00;46570.53;5033934;28;20037;-63
2023/05/20 06:21:57;;;;;;;10.60;4.07;;;;;;;-145.18;100.00;46556.88;5032954;28;20060;-63
2023/05/20 06:24:22;;;;;;;5.73;3.27;;;;;;;-145.18;100.00;46556.88;5051628;28;20036;-63
2023/05/20 06:26:49;;;;;;;5.73;3.77;;;;;;;-145.18;100.00;46566.63;5051654;28;20478;-63
2023/05/20 06:29:14;;;;;;;6.97;3.83;;;;;;;-145.18;100.00;46566.63;5050204;28;20028;-63
2023/05/20 06:31:40;;;;;;;9.00;3.90;;;;;;;-145.18;100.00;46566.63;5031499;28;20032;-63
2023/05/20 06:34:05;;;;;;;8.17;4.27;;;;;;;-145.18;100.00;46566.63;5031654;28;20024;-63
2023/05/20 06:36:31;;;;;;;11.00;4.67;;;;;;;-145.18;100.00;46564.69;5046720;28;20043;-63
2023/05/20 06:38:56;;;;;;;5.83;3.70;;;;;;;-145.18;100.00;46570.53;5051736;28;20025;-63
2023/05/20 06:41:22;;;;;;;11.07;3.53;;;;;;;-145.18;100.00;46562.72;5028295;28;20029;-63
2023/05/20 06:43:47;;;;;;;9.47;3.83;;;;;;;-145.18;100.00;46570.53;5042125;28;20104;-63
2023/05/20 06:46:12;;;;;;;7.53;3.73;;;;;;;-145.18;100.00;46570.53;5034718;28;20040;-63
2023/05/20 06:48:38;;;;;;;11.20;3.93;;;;;;;-145.18;100.00;46564.69;5040284;28;20086;-63
2023/05/20 06:51:08;;;;;;;10.77;4.30;;;;;;;-145.18;100.00;46562.72;5048705;28;20561;-63
2023/05/20 06:53:33;;;;;;;8.00;3.70;;;;;;;-145.18;100.00;46566.63;5049901;28;20060;-63
2023/05/20 06:55:59;;;;;;;10.50;3.60;;;;;;;-145.18;100.00;46582.25;5052682;28;20055;-63
2023/05/20 06:58:24;;;;;;;7.43;3.63;;;;;;;-145.18;100.00;46582.25;5037446;28;20048;-63
2023/05/20 07:00:49;;;;;;;9.67;3.80;;;;;;;-145.18;100.00;46574.44;5051618;28;20458;-63
2023/05/20 07:03:15;;;;;;;7.03;3.80;;;;;;;-145.18;100.00;46590.06;5053117;28;20029;-63
2023/05/20 07:05:40;;;;;;;6.70;3.77;;;;;;;-145.18;100.00;46584.22;5062568;28;20485;-63
2023/05/20 07:08:06;;;;;;;6.20;3.30;;;;;;;-145.18;100.00;46599.84;5044186;28;20072;-63
2023/05/20 07:10:31;;;;;;;6.27;3.80;;;;;;;-145.18;100.00;46578.34;5057291;28;20037;-63
2023/05/20 07:12:57;;;;;;;6.27;3.80;;;;;;;-145.18;100.00;46586.16;5046613;28;20029;-63
2023/05/20 07:15:22;;;;;;;8.43;3.67;;;;;;;-145.18;100.00;46578.34;5035019;28;20029;-63
2023/05/20 07:17:47;;;;;;;6.07;3.73;;;;;;;-145.18;100.00;46597.88;5035202;28;20088;-63
2023/05/20 07:20:13;;;;;;;6.37;3.70;;;;;;;-145.18;100.00;46593.97;5035120;28;20048;-63
2023/05/20 07:22:38;;;;;;;7.43;4.00;;;;;;;-145.18;100.00;46592.03;5035066;28;20045;-63
2023/05/20 07:25:04;;;;;;;8.73;3.33;;;;;;;-145.18;100.00;46633.06;5016476;28;20505;-63
2023/05/20 07:27:29;;;;;;;6.37;3.73;;;;;;;-145.18;100.00;46625.22;5046522;28;20057;-63
2023/05/20 07:29:55;;;;;;;8.33;3.27;;;;;;;-145.18;100.00;46636.94;5034896;28;20037;-63
2023/05/20 07:32:20;;;;;;;5.83;3.40;;;;;;;-145.18;100.00;46660.41;5047529;28;20120;-63
2023/05/20 07:34:46;;;;;;;6.83;3.70;;;;;;;-145.18;100.00;46646.72;5053782;28;20032;-63
2023/05/20 07:37:11;;;;;;;6.83;3.73;;;;;;;-145.18;100.00;46636.94;5038621;28;20060;-63
2023/05/20 07:39:37;;;;;;;7.70;2.90;;;;;;;-145.18;100.00;46648.69;5034368;28;20103;-63
2023/05/20 07:42:03;;;;;;;5.03;3.03;;;;;;;-145.18;100.00;46648.69;5038515;28;20437;-63
2023/05/20 07:44:28;;;;;;;5.23;3.13;;;;;;;-145.18;100.00;46832.28;5051244;28;20595;-63
2023/05/20 07:46:54;;;;;;;6.47;3.13;;;;;;;-145.18;100.00;47000.28;5048622;28;20091;-63
2023/05/20 07:49:20;;;;;;;6.93;3.17;;;;;;;-145.18;100.00;47101.88;5044487;28;20127;-63
2023/05/20 07:51:46;;;;;;;10.43;3.00;;;;;;;-145.18;100.00;47185.88;5044883;28;20065;-63
2023/05/20 07:54:11;;;;;;;5.40;2.80;;;;;;;-145.18;100.00;47324.59;5045353;28;20041;-63
2023/05/20 07:56:37;;;;;;;8.17;2.97;;;;;;;-145.18;100.00;47299.19;5048573;28;20083;-63
2023/05/20 07:59:02;;;;;;;10.17;3.33;;;;;;;-145.18;100.00;47318.72;5042198;28;20036;-63
2023/05/20 08:01:28;;;;;;;4.40;2.67;;;;;;;-145.18;100.00;47312.88;5044217;28;20047;-63
2023/05/20 08:03:54;;;;;;;4.27;2.60;;;;;;;-145.18;100.00;47260.13;5047837;28;20033;-63
2023/05/20 08:06:20;;;;;;;4.40;2.60;;;;;;;-145.18;100.00;47242.53;5054243;28;20032;-63
2023/05/20 08:08:46;;;;;;;5.73;2.70;;;;;;;-145.18;100.00;47223.00;5025635;28;20067;-63
2023/05/20 08:11:12;;;;;;;4.67;2.33;;;;;;;-145.18;100.00;47209.31;5035869;28;20045;-64
2023/05/20 08:13:37;;;;;;;3.43;2.27;;;;;;;-145.18;100.00;47183.94;5048985;28;20425;-63
2023/05/20 08:16:04;;;;;;;4.40;2.70;;;;;;;-145.18;100.00;47221.03;5048284;28;20036;-63
2023/05/20 08:18:31;;;;;;;3.50;2.27;;;;;;;-145.18;100.00;47180.03;5038142;28;20555;-63
2023/05/20 08:20:57;;;;;;;4.27;2.67;;;;;;;-145.18;100.00;47187.84;5042229;28;20124;-63
2023/05/20 08:23:23;;;;;;;4.43;1.90;;;;;;;-145.18;100.00;47187.84;5023203;28;20025;-63
2023/05/20 08:25:48;;;;;;;4.43;2.43;;;;;;;-145.18;100.00;47164.38;5038853;28;20059;-63
2023/05/20 08:28:14;;;;;;;4.00;2.43;;;;;;;-145.18;100.00;47176.09;5039189;28;20084;-63
2023/05/20 08:30:40;;;;;;;4.53;2.40;;;;;;;-145.18;100.00;47168.28;5033153;28;20029;-63
2023/05/20 08:33:06;;;;;;;5.00;2.50;;;;;;;-145.18;100.00;47181.97;5033367;28;20030;-63
2023/05/20 08:35:31;;;;;;;3.43;2.23;;;;;;;-145.18;100.00;47170.25;5033647;28;20048;-63
2023/05/20 08:37:57;;;;;;;2.43;1.90;;;;;;;-145.18;100.00;47170.25;5033892;28;20120;-64
2023/05/20 08:40:22;;;;;;;5.60;2.10;;;;;;;-145.18;100.00;47166.34;5033179;28;20052;-63
2023/05/20 08:42:49;;;;;;;7.67;2.63;;;;;;;-145.18;100.00;47168.28;5015495;28;20571;-63
2023/05/20 08:45:18;;;;;;;4.07;1.97;;;;;;;-145.18;100.00;47162.44;5033114;28;20041;-63
2023/05/20 08:47:43;;;;;;;5.47;2.30;;;;;;;-145.18;100.00;47150.72;5033181;28;20103;-63
2023/05/20 08:50:10;;;;;;;8.13;2.60;;;;;;;-145.18;100.00;47142.91;5016838;28;20505;-63
2023/05/20 08:52:40;;;;;;;3.37;2.17;;;;;;;-145.18;100.00;47137.03;5041449;28;20033;-63
2023/05/20 08:55:08;;;;;;;4.67;1.70;;;;;;;-145.18;100.00;47144.84;5044468;28;20071;-64
2023/05/20 08:57:35;;;;;;;5.00;2.10;;;;;;;-145.18;100.00;47150.72;5041166;28;20037;-63
2023/05/20 09:00:07;;;;;;;10.97;2.40;;;;;;;-145.18;100.00;47164.38;5033241;28;20398;-63
2023/05/20 09:02:36;;;;;;;4.67;2.20;;;;;;;-145.18;100.00;47158.53;5033174;28;20106;-63
2023/05/20 09:05:03;;;;;;;6.50;2.00;;;;;;;-145.18;100.00;47140.94;5046171;28;20048;-63
2023/05/20 09:07:29;;;;;;;3.73;1.80;;;;;;;-145.18;100.00;47156.56;5051861;28;20522;-63
2023/05/20 09:09:55;;;;;;;3.83;1.93;;;;;;;-145.18;100.00;47144.84;5037086;28;20067;-63
2023/05/20 09:12:20;;;;;;;2.17;1.77;;;;;;;-145.18;100.00;47156.56;5042974;28;20082;-63
2023/05/20 09:14:46;;;;;;;6.30;1.90;;;;;;;-145.18;100.00;47148.75;5033201;28;20490;-63
2023/05/20 09:17:12;;;;;;;6.47;2.00;;;;;;;-145.18;100.00;47135.09;5032695;28;20053;-63
2023/05/20 09:19:37;;;;;;;6.97;1.90;;;;;;;-145.18;100.00;47129.22;5031882;28;20136;-63
2023/05/20 09:22:04;;;;;;;2.53;1.50;;;;;;;-145.18;100.00;47142.91;5033006;28;20021;-63
2023/05/20 09:24:29;;;;;;;5.37;1.90;;;;;;;-145.18;100.00;47135.09;5032618;28;20025;-63
2023/05/20 09:26:56;;;;;;;2.23;1.53;;;;;;;-145.18;100.00;47115.56;5032003;28;20041;-63
2023/05/20 09:29:22;;;;;;;3.77;1.23;;;;;;;-145.18;100.00;47121.41;5032751;28;20033;-63
2023/05/20 09:31:48;;;;;;;3.90;2.00;;;;;;;-145.18;100.00;47125.31;5033118;28;20463;-63
2023/05/20 09:34:14;;;;;;;2.00;1.40;;;;;;;-145.18;100.00;47121.41;5035291;28;20538;-63
2023/05/20 09:36:42;;;;;;;4.87;1.73;;;;;;;-145.18;100.00;47109.69;5032426;28;20160;-63
2023/05/20 09:39:13;;;;;;;3.80;1.40;;;;;;;-145.18;100.00;47123.38;5047532;28;20063;-63
2023/05/20 09:41:54;;;;;;;5.27;2.00;;;;;;;-145.18;100.00;47103.81;5052325;28;20391;-63
2023/05/20 09:44:20;;;;;;;4.83;1.70;;;;;;;-145.18;100.00;47096.00;5051803;28;20029;-63
2023/05/20 09:46:46;;;;;;;5.50;1.73;;;;;;;-145.18;100.00;47125.31;5052318;28;20454;-63
2023/05/20 09:49:13;;;;;;;3.43;1.47;;;;;;;-145.18;100.00;47121.41;5047930;28;20033;-63
2023/05/20 09:51:40;;;;;;;4.17;1.70;;;;;;;-145.18;100.00;47105.78;5041665;28;20040;-63
2023/05/20 09:54:08;;;;;;;2.80;1.70;;;;;;;-145.18;100.00;47125.31;5045381;28;20026;-63
2023/05/20 09:56:33;;;;;;;7.23;1.60;;;;;;;-145.18;100.00;47148.75;5031933;28;20112;-63
2023/05/20 09:59:01;;;;;;;5.37;1.63;;;;;;;-145.18;100.00;47154.63;5032157;28;20030;-63
2023/05/20 10:01:27;;;;;;;3.43;1.77;;;;;;;-145.18;100.00;47162.44;5031954;28;20487;-63
2023/05/20 10:03:52;;;;;;;3.60;2.63;;;;;;;-145.18;100.00;47125.31;5014798;28;20033;-63
2023/05/20 10:06:27;;;;;;;3.20;1.80;;;;;;;-145.18;100.00;47113.59;5039390;28;20052;-63
2023/05/20 10:09:18;;;;;;;6.05;1.70;;;;;;;-145.18;100.00;47142.91;5051348;28;20040;-63
2023/05/20 10:11:51;;;;;;;4.83;1.67;;;;;;;-145.18;100.00;47099.91;5051685;28;20127;-63
2023/05/20 10:14:19;;;;;;;3.03;1.53;;;;;;;-145.18;100.00;47109.69;5051916;28;20035;-64
2023/05/20 10:17:08;;;;;;;3.30;1.70;;;;;;;-145.18;100.00;47129.22;5051673;28;20047;-63
2023/05/20 10:19:34;;;;;;;2.80;1.97;;;;;;;-145.18;100.00;47105.78;5051692;28;20146;-63
2023/05/20 10:22:05;;;;;;;3.03;1.70;;;;;;;-145.18;100.00;47131.19;5048631;28;20162;-63
2023/05/20 10:24:32;;;;;;;2.43;1.93;;;;;;;-145.18;100.00;47121.41;5033694;28;20033;-63
2023/05/20 10:27:01;;;;;;;3.97;1.90;;;;;;;-145.18;100.00;47097.97;5048380;28;20064;-63
2023/05/20 10:29:27;;;;;;;3.10;1.93;;;;;;;-145.18;100.00;47140.94;5037070;28;20518;-63
2023/05/20 10:31:53;;;;;;;1.90;1.43;;;;;;;-145.18;100.00;47109.69;5035459;28;20056;-63
2023/05/20 10:34:21;;;;;;;3.50;1.80;;;;;;;-145.18;100.00;47086.25;5040405;28;20074;-63
2023/05/20 10:36:53;;;;;;;2.83;2.00;;;;;;;-145.18;100.00;47090.16;5045990;28;20112;-63
2023/05/20 10:39:18;;;;;;;4.20;1.60;;;;;;;-145.18;100.00;47090.16;5043362;28;20436;-63
2023/05/20 10:41:44;;;;;;;3.10;2.00;;;;;;;-145.18;100.00;47082.34;5042336;28;20106;-62
2023/05/20 10:44:10;;;;;;;3.27;1.97;;;;;;;-145.18;100.00;47094.06;5041842;28;20029;-65
2023/05/20 10:46:35;;;;;;;15.67;2.17;;;;;;;-145.18;100.00;47088.19;5044779;28;20044;-64
2023/05/20 10:49:02;;;;;;;3.57;1.63;;;;;;;-145.18;100.00;47080.38;5043948;28;20082;-62
2023/05/20 10:51:30;;;;;;;4.17;1.83;;;;;;;-145.18;100.00;47051.09;5027783;28;20025;-62
2023/05/20 10:53:56;;;;;;;5.60;1.80;;;;;;;-145.18;100.00;47051.09;5042320;28;20117;-63
2023/05/20 10:56:25;;;;;;;4.00;1.67;;;;;;;-145.18;100.00;47090.16;5044031;28;20171;-61
2023/05/20 10:58:52;;;;;;;2.67;1.90;;;;;;;-145.18;100.00;47111.66;5044870;28;20087;-61
2023/05/20 11:01:21;;;;;;;4.40;2.33;;;;;;;-145.18;100.00;47121.41;5044193;28;20033;-61
2023/05/20 11:03:48;;;;;;;3.00;1.93;;;;;;;-145.18;100.00;47097.97;5042742;28;20040;-61